createdAt,value
2018-02-08T00:00:25.568Z,0
2018-02-08T00:01:26.132Z,0
2018-02-08T00:02:26.699Z,0
2018-02-08T00:03:27.262Z,0
2018-02-08T00:04:27.833Z,0
2018-02-08T00:05:28.390Z,0
2018-02-08T00:06:28.954Z,0
2018-02-08T00:07:29.519Z,0
2018-02-08T00:08:30.085Z,0
2018-02-08T00:09:30.649Z,0
2018-02-08T00:10:31.215Z,0
2018-02-08T00:11:31.778Z,0
2018-02-08T00:12:32.344Z,0
2018-02-08T00:13:32.910Z,0
2018-02-08T00:14:33.474Z,0
2018-02-08T00:15:34.039Z,0
2018-02-08T00:16:34.605Z,0
2018-02-08T00:17:35.184Z,0
2018-02-08T00:18:35.748Z,0
2018-02-08T00:19:36.328Z,0
2018-02-08T00:20:36.894Z,0
2018-02-08T00:21:37.458Z,0
2018-02-08T00:22:38.024Z,0
2018-02-08T00:23:38.587Z,0
2018-02-08T00:24:39.154Z,0
2018-02-08T00:25:39.732Z,0
2018-02-08T00:26:40.299Z,0
2018-02-08T00:27:40.862Z,0
2018-02-08T00:28:41.428Z,0
2018-02-08T00:29:41.991Z,0
2018-02-08T00:30:42.556Z,0
2018-02-08T00:31:43.121Z,0
2018-02-08T00:32:43.686Z,0
2018-02-08T00:33:44.250Z,0
2018-02-08T00:34:44.815Z,0
2018-02-08T00:35:45.380Z,0
2018-02-08T00:36:45.945Z,0
2018-02-08T00:37:46.509Z,0
2018-02-08T00:38:47.073Z,0
2018-02-08T00:39:47.638Z,0
2018-02-08T00:40:48.203Z,0
2018-02-08T00:41:48.769Z,0
2018-02-08T00:42:49.334Z,0
2018-02-08T00:43:49.898Z,0
2018-02-08T00:44:50.476Z,0
2018-02-08T00:45:51.040Z,0
2018-02-08T00:46:51.605Z,0
2018-02-08T00:47:52.170Z,0
2018-02-08T00:48:52.735Z,0
2018-02-08T00:49:53.299Z,0
2018-02-08T00:50:53.863Z,0
2018-02-08T00:51:54.427Z,0
2018-02-08T00:52:54.993Z,0
2018-02-08T00:53:55.557Z,0
2018-02-08T00:54:56.121Z,0
2018-02-08T00:55:56.686Z,0
2018-02-08T00:56:57.249Z,0
2018-02-08T00:57:57.816Z,0
2018-02-08T00:58:58.381Z,0
2018-02-08T00:59:58.944Z,0
2018-02-08T01:00:59.522Z,0
2018-02-08T01:02:00.086Z,0
2018-02-08T01:03:00.650Z,0
2018-02-08T01:04:01.228Z,0
2018-02-08T01:05:01.792Z,0
2018-02-08T01:06:02.356Z,0
2018-02-08T01:07:02.923Z,0
2018-02-08T01:08:03.501Z,0
2018-02-08T01:09:04.067Z,0
2018-02-08T01:10:04.632Z,0
2018-02-08T01:11:05.195Z,0
2018-02-08T01:12:05.759Z,0
2018-02-08T01:13:06.324Z,0
2018-02-08T01:14:06.892Z,0
2018-02-08T01:15:07.452Z,0
2018-02-08T01:16:08.017Z,0
2018-02-08T01:17:08.579Z,0
2018-02-08T01:18:09.145Z,0
2018-02-08T01:19:09.710Z,0
2018-02-08T01:20:10.274Z,0
2018-02-08T01:21:10.839Z,0
2018-02-08T01:22:11.403Z,0
2018-02-08T01:23:11.968Z,0
2018-02-08T01:24:12.534Z,0
2018-02-08T01:25:13.098Z,0
2018-02-08T01:26:13.663Z,0
2018-02-08T01:27:14.245Z,0
2018-02-08T01:28:14.822Z,0
2018-02-08T01:29:15.399Z,0
2018-02-08T01:30:15.965Z,0
2018-02-08T01:31:16.528Z,0
2018-02-08T01:32:17.099Z,0
2018-02-08T01:33:17.660Z,0
2018-02-08T01:34:18.224Z,0
2018-02-08T01:35:18.787Z,0
2018-02-08T01:36:19.351Z,0
2018-02-08T01:37:19.916Z,0
2018-02-08T01:38:20.482Z,0
2018-02-08T01:39:21.044Z,0
2018-02-08T01:40:21.624Z,0
2018-02-08T01:41:22.172Z,0
2018-02-08T01:42:22.739Z,0
2018-02-08T01:43:23.302Z,0
2018-02-08T01:44:23.868Z,0
2018-02-08T01:45:24.480Z,0
2018-02-08T01:46:25.045Z,0
2018-02-08T01:47:25.610Z,0
2018-02-08T01:48:26.175Z,0
2018-02-08T01:49:26.739Z,0
2018-02-08T01:50:27.305Z,0
2018-02-08T01:51:27.870Z,0
2018-02-08T01:52:28.435Z,0
2018-02-08T01:53:28.999Z,0
2018-02-08T01:54:29.563Z,0
2018-02-08T01:55:30.128Z,0
2018-02-08T01:56:30.695Z,0
2018-02-08T01:57:31.257Z,0
2018-02-08T01:58:31.822Z,0
2018-02-08T01:59:32.389Z,0
2018-02-08T02:00:32.953Z,0
2018-02-08T02:01:33.518Z,0
2018-02-08T02:02:34.083Z,0
2018-02-08T02:03:34.646Z,0
2018-02-08T02:04:35.211Z,0
2018-02-08T02:05:35.774Z,0
2018-02-08T02:06:36.338Z,0
2018-02-08T02:07:36.902Z,0
2018-02-08T02:08:37.465Z,0
2018-02-08T02:09:38.030Z,0
2018-02-08T02:10:38.595Z,0
2018-02-08T02:11:39.161Z,0
2018-02-08T02:12:39.773Z,0
2018-02-08T02:13:40.290Z,0
2018-02-08T02:14:40.856Z,0
2018-02-08T02:15:41.420Z,0
2018-02-08T02:16:41.985Z,0
2018-02-08T02:17:42.550Z,0
2018-02-08T02:18:43.114Z,0
2018-02-08T02:19:43.681Z,0
2018-02-08T02:20:44.244Z,0
2018-02-08T02:21:44.809Z,0
2018-02-08T02:22:45.372Z,0
2018-02-08T02:23:45.937Z,0
2018-02-08T02:24:46.504Z,0
2018-02-08T02:25:47.068Z,0
2018-02-08T02:26:47.632Z,0
2018-02-08T02:27:48.197Z,0
2018-02-08T02:28:48.762Z,0
2018-02-08T02:29:49.326Z,0
2018-02-08T02:30:49.890Z,0
2018-02-08T02:31:50.454Z,0
2018-02-08T02:32:51.020Z,0
2018-02-08T02:33:51.583Z,0
2018-02-08T02:34:52.149Z,0
2018-02-08T02:35:52.713Z,0
2018-02-08T02:36:53.278Z,0
2018-02-08T02:37:53.846Z,0
2018-02-08T02:38:54.407Z,0
2018-02-08T02:39:54.971Z,0
2018-02-08T02:40:55.585Z,0
2018-02-08T02:41:56.149Z,0
2018-02-08T02:42:56.713Z,0
2018-02-08T02:43:57.288Z,0
2018-02-08T02:44:57.842Z,0
2018-02-08T02:45:58.409Z,0
2018-02-08T02:46:58.971Z,0
2018-02-08T02:47:59.535Z,0
2018-02-08T02:49:00.100Z,0
2018-02-08T02:50:00.666Z,0
2018-02-08T02:51:01.230Z,0
2018-02-08T02:52:01.795Z,0
2018-02-08T02:53:02.364Z,0
2018-02-08T02:54:02.923Z,0
2018-02-08T02:55:03.488Z,0
2018-02-08T02:56:04.054Z,0
2018-02-08T02:57:04.624Z,0
2018-02-08T02:58:05.181Z,0
2018-02-08T02:59:05.748Z,0
2018-02-08T03:00:06.311Z,0
2018-02-08T03:01:06.876Z,0
2018-02-08T03:02:07.444Z,0
2018-02-08T03:03:08.004Z,0
2018-02-08T03:04:08.569Z,0
2018-02-08T03:05:09.134Z,0
2018-02-08T03:06:09.699Z,0
2018-02-08T03:07:10.263Z,0
2018-02-08T03:08:10.828Z,0
2018-02-08T03:09:11.395Z,0
2018-02-08T03:10:11.973Z,0
2018-02-08T03:11:12.550Z,0
2018-02-08T03:12:13.115Z,0
2018-02-08T03:13:13.681Z,0
2018-02-08T03:14:14.245Z,0
2018-02-08T03:15:14.809Z,0
2018-02-08T03:16:15.384Z,0
2018-02-08T03:17:15.948Z,0
2018-02-08T03:18:16.514Z,0
2018-02-08T03:19:17.080Z,0
2018-02-08T03:20:17.644Z,0
2018-02-08T03:21:18.209Z,0
2018-02-08T03:22:18.785Z,0
2018-02-08T03:23:19.379Z,0
2018-02-08T03:24:19.913Z,0
2018-02-08T03:25:20.479Z,0
2018-02-08T03:26:21.043Z,0
2018-02-08T03:27:21.607Z,0
2018-02-08T03:28:22.171Z,0
2018-02-08T03:29:22.734Z,0
2018-02-08T03:30:23.301Z,0
2018-02-08T03:31:23.864Z,0
2018-02-08T03:32:24.427Z,0
2018-02-08T03:33:24.992Z,0
2018-02-08T03:34:25.557Z,0
2018-02-08T03:35:26.125Z,0
2018-02-08T03:36:26.701Z,0
2018-02-08T03:37:27.280Z,0
2018-02-08T03:38:27.845Z,0
2018-02-08T03:39:28.409Z,0
2018-02-08T03:40:28.986Z,0
2018-02-08T03:41:29.550Z,0
2018-02-08T03:42:30.115Z,0
2018-02-08T03:43:30.679Z,0
2018-02-08T03:44:31.244Z,0
2018-02-08T03:45:31.808Z,0
2018-02-08T03:46:32.373Z,0
2018-02-08T03:47:32.938Z,0
2018-02-08T03:48:33.504Z,0
2018-02-08T03:49:34.067Z,0
2018-02-08T03:50:34.634Z,0
2018-02-08T03:51:35.196Z,0
2018-02-08T03:52:35.760Z,0
2018-02-08T03:53:36.326Z,0
2018-02-08T03:54:36.905Z,0
2018-02-08T03:55:37.469Z,0
2018-02-08T03:56:38.082Z,0
2018-02-08T03:57:38.647Z,0
2018-02-08T03:58:39.212Z,0
2018-02-08T03:59:39.774Z,0
2018-02-08T04:00:40.353Z,0
2018-02-08T04:01:40.917Z,0
2018-02-08T04:02:41.480Z,0
2018-02-08T04:03:42.046Z,0
2018-02-08T04:04:42.611Z,0
2018-02-08T04:05:43.175Z,0
2018-02-08T04:06:43.738Z,0
2018-02-08T04:07:44.304Z,0
2018-02-08T04:08:44.872Z,0
2018-02-08T04:09:45.435Z,0
2018-02-08T04:10:46.016Z,0
2018-02-08T04:11:46.577Z,0
2018-02-08T04:12:47.141Z,0
2018-02-08T04:13:47.706Z,0
2018-02-08T04:14:48.272Z,0
2018-02-08T04:15:48.836Z,0
2018-02-08T04:16:49.400Z,0
2018-02-08T04:17:49.965Z,0
2018-02-08T04:18:50.532Z,0
2018-02-08T04:19:51.096Z,0
2018-02-08T04:20:51.674Z,0
2018-02-08T04:21:52.238Z,0
2018-02-08T04:22:52.802Z,0
2018-02-08T04:23:53.363Z,0
2018-02-08T04:24:53.926Z,0
2018-02-08T04:25:54.497Z,0
2018-02-08T04:26:55.065Z,0
2018-02-08T04:27:55.624Z,0
2018-02-08T04:28:56.189Z,0
2018-02-08T04:29:56.755Z,0
2018-02-08T04:30:57.319Z,0
2018-02-08T04:31:57.883Z,0
2018-02-08T04:32:58.450Z,0
2018-02-08T04:33:59.012Z,0
2018-02-08T04:34:59.576Z,0
2018-02-08T04:36:00.141Z,0
2018-02-08T04:37:00.704Z,0
2018-02-08T04:38:01.268Z,0
2018-02-08T04:39:01.834Z,0
2018-02-08T04:40:02.399Z,0
2018-02-08T04:41:02.963Z,0
2018-02-08T04:42:03.528Z,0
2018-02-08T04:43:04.090Z,0
2018-02-08T04:44:04.657Z,0
2018-02-08T04:45:05.220Z,0
2018-02-08T04:46:05.784Z,0
2018-02-08T04:47:06.349Z,0
2018-02-08T04:48:06.928Z,0
2018-02-08T04:49:07.507Z,0
2018-02-08T04:50:08.070Z,0
2018-02-08T04:51:08.635Z,0
2018-02-08T04:52:09.214Z,0
2018-02-08T04:53:09.779Z,0
2018-02-08T04:54:10.346Z,0
2018-02-08T04:55:10.906Z,0
2018-02-08T04:56:11.469Z,0
2018-02-08T04:57:12.033Z,0
2018-02-08T04:58:12.597Z,0
2018-02-08T04:59:13.163Z,0
2018-02-08T05:00:13.726Z,0
2018-02-08T05:01:14.305Z,0
2018-02-08T05:02:14.869Z,0
2018-02-08T05:03:15.433Z,0
2018-02-08T05:04:15.999Z,0
2018-02-08T05:05:16.564Z,0
2018-02-08T05:06:17.128Z,0
2018-02-08T05:07:17.691Z,0
2018-02-08T05:08:18.255Z,0
2018-02-08T05:09:18.819Z,0
2018-02-08T05:10:19.384Z,0
2018-02-08T05:11:19.949Z,0
2018-02-08T05:12:20.517Z,0
2018-02-08T05:13:21.075Z,0
2018-02-08T05:14:21.653Z,0
2018-02-08T05:15:22.216Z,0
2018-02-08T05:16:22.782Z,0
2018-02-08T05:17:23.346Z,0
2018-02-08T05:18:23.911Z,0
2018-02-08T05:19:24.475Z,0
2018-02-08T05:20:25.041Z,0
2018-02-08T05:21:25.610Z,0
2018-02-08T05:22:26.169Z,0
2018-02-08T05:23:26.733Z,0
2018-02-08T05:24:27.297Z,0
2018-02-08T05:25:27.862Z,0
2018-02-08T05:26:28.430Z,0
2018-02-08T05:27:28.991Z,0
2018-02-08T05:28:29.555Z,0
2018-02-08T05:29:30.130Z,0
2018-02-08T05:30:30.695Z,0
2018-02-08T05:31:31.259Z,0
2018-02-08T05:32:31.823Z,0
2018-02-08T05:33:32.386Z,0
2018-02-08T05:34:32.951Z,0
2018-02-08T05:35:33.534Z,0
2018-02-08T05:36:34.079Z,0
2018-02-08T05:37:34.645Z,0
2018-02-08T05:38:35.209Z,0
2018-02-08T05:39:35.773Z,0
2018-02-08T05:40:36.336Z,0
2018-02-08T05:41:36.903Z,0
2018-02-08T05:42:37.466Z,0
2018-02-08T05:43:38.031Z,0
2018-02-08T05:44:38.596Z,0
2018-02-08T05:45:39.161Z,0
2018-02-08T05:46:39.725Z,0
2018-02-08T05:47:40.288Z,0
2018-02-08T05:48:40.855Z,0
2018-02-08T05:49:41.416Z,0
2018-02-08T05:50:41.982Z,0
2018-02-08T05:51:42.545Z,0
2018-02-08T05:52:43.109Z,0
2018-02-08T05:53:43.673Z,0
2018-02-08T05:54:44.237Z,0
2018-02-08T05:55:44.814Z,0
2018-02-08T05:56:45.379Z,0
2018-02-08T05:57:45.945Z,0
2018-02-08T05:58:46.510Z,0
2018-02-08T05:59:47.088Z,0
2018-02-08T06:00:47.653Z,0
2018-02-08T06:01:48.216Z,0
2018-02-08T06:02:48.786Z,0
2018-02-08T06:03:49.359Z,0
2018-02-08T06:04:49.922Z,0
2018-02-08T06:05:50.495Z,0
2018-02-08T06:06:51.068Z,0
2018-02-08T06:07:51.632Z,0
2018-02-08T06:08:52.196Z,0
2018-02-08T06:09:52.772Z,0
2018-02-08T06:10:53.335Z,0
2018-02-08T06:11:53.900Z,0
2018-02-08T06:12:54.465Z,0
2018-02-08T06:13:55.029Z,0
2018-02-08T06:14:55.593Z,0
2018-02-08T06:15:56.156Z,0
2018-02-08T06:16:56.722Z,0
2018-02-08T06:17:57.288Z,0
2018-02-08T06:18:57.853Z,0
2018-02-08T06:19:58.416Z,0
2018-02-08T06:20:58.977Z,0
2018-02-08T06:21:59.542Z,0
2018-02-08T06:23:00.108Z,0
2018-02-08T06:24:00.671Z,0
2018-02-08T06:25:01.235Z,0
2018-02-08T06:26:01.799Z,0
2018-02-08T06:27:02.377Z,0
2018-02-08T06:28:02.944Z,0
2018-02-08T06:29:03.510Z,0
2018-02-08T06:30:04.071Z,0
2018-02-08T06:31:04.634Z,0
2018-02-08T06:32:05.197Z,0
2018-02-08T06:33:05.762Z,0
2018-02-08T06:34:06.326Z,0
2018-02-08T06:35:06.888Z,0
2018-02-08T06:36:07.451Z,0
2018-02-08T06:37:08.019Z,0
2018-02-08T06:38:08.578Z,4
2018-02-08T06:39:09.145Z,0
2018-02-08T06:40:09.708Z,0
2018-02-08T06:41:10.285Z,4
2018-02-08T06:42:10.849Z,0
2018-02-08T06:43:11.412Z,4
2018-02-08T06:44:11.975Z,4
2018-02-08T06:45:12.540Z,0
2018-02-08T06:46:13.169Z,4
2018-02-08T06:47:13.682Z,4
2018-02-08T06:48:14.246Z,8
2018-02-08T06:49:14.823Z,4
2018-02-08T06:50:15.387Z,8
2018-02-08T06:51:15.950Z,4
2018-02-08T06:52:16.521Z,8
2018-02-08T06:53:17.079Z,8
2018-02-08T06:54:17.647Z,12
2018-02-08T06:55:18.210Z,12
2018-02-08T06:56:18.777Z,12
2018-02-08T06:57:19.354Z,16
2018-02-08T06:58:19.933Z,16
2018-02-08T06:59:20.497Z,20
2018-02-08T07:00:21.063Z,20
2018-02-08T07:01:21.629Z,20
2018-02-08T07:02:22.192Z,28
2018-02-08T07:03:22.772Z,28
2018-02-08T07:04:23.336Z,32
2018-02-08T07:05:23.902Z,32
2018-02-08T07:06:24.465Z,36
2018-02-08T07:07:25.033Z,40
2018-02-08T07:08:25.597Z,40
2018-02-08T07:09:26.175Z,44
2018-02-08T07:10:26.740Z,48
2018-02-08T07:11:27.306Z,52
2018-02-08T07:12:27.884Z,56
2018-02-08T07:13:28.450Z,56
2018-02-08T07:14:29.017Z,60
2018-02-08T07:15:29.594Z,64
2018-02-08T07:16:30.159Z,68
2018-02-08T07:17:30.721Z,72
2018-02-08T07:18:31.296Z,76
2018-02-08T07:19:31.865Z,80
2018-02-08T07:20:32.429Z,80
2018-02-08T07:21:32.994Z,84
2018-02-08T07:22:33.558Z,84
2018-02-08T07:23:34.122Z,92
2018-02-08T07:24:34.689Z,96
2018-02-08T07:25:35.254Z,96
2018-02-08T07:26:35.820Z,100
2018-02-08T07:27:36.389Z,108
2018-02-08T07:28:36.955Z,108
2018-02-08T07:29:37.521Z,112
2018-02-08T07:30:38.101Z,116
2018-02-08T07:31:38.666Z,120
2018-02-08T07:32:39.233Z,124
2018-02-08T07:33:39.799Z,128
2018-02-08T07:34:40.364Z,128
2018-02-08T07:35:40.931Z,136
2018-02-08T07:36:41.498Z,140
2018-02-08T07:37:42.070Z,144
2018-02-08T07:38:42.637Z,152
2018-02-08T07:39:43.212Z,152
2018-02-08T07:40:43.779Z,156
2018-02-08T07:41:44.344Z,164
2018-02-08T07:42:44.912Z,168
2018-02-08T07:43:45.478Z,176
2018-02-08T07:44:46.045Z,184
2018-02-08T07:45:46.611Z,188
2018-02-08T07:46:47.180Z,196
2018-02-08T07:47:47.752Z,204
2018-02-08T07:48:48.316Z,208
2018-02-08T07:49:48.885Z,216
2018-02-08T07:50:49.452Z,224
2018-02-08T07:51:50.020Z,228
2018-02-08T07:52:50.589Z,236
2018-02-08T07:53:51.157Z,240
2018-02-08T07:54:51.740Z,240
2018-02-08T07:55:52.307Z,244
2018-02-08T07:56:52.874Z,244
2018-02-08T07:57:53.455Z,248
2018-02-08T07:58:54.024Z,244
2018-02-08T07:59:54.607Z,244
2018-02-08T08:00:55.174Z,240
2018-02-08T08:01:55.739Z,232
2018-02-08T08:02:56.309Z,232
2018-02-08T08:03:56.877Z,240
2018-02-08T08:04:57.445Z,240
2018-02-08T08:05:58.028Z,244
2018-02-08T08:06:58.598Z,244
2018-02-08T08:07:59.179Z,256
2018-02-08T08:08:59.748Z,260
2018-02-08T08:10:00.315Z,264
2018-02-08T08:11:00.882Z,268
2018-02-08T08:12:01.449Z,272
2018-02-08T08:13:02.031Z,268
2018-02-08T08:14:02.599Z,264
2018-02-08T08:15:03.167Z,264
2018-02-08T08:16:03.737Z,268
2018-02-08T08:17:04.304Z,276
2018-02-08T08:18:04.872Z,292
2018-02-08T08:19:05.450Z,296
2018-02-08T08:20:06.030Z,292
2018-02-08T08:21:06.597Z,292
2018-02-08T08:22:07.165Z,288
2018-02-08T08:23:07.735Z,288
2018-02-08T08:24:08.302Z,284
2018-02-08T08:25:08.869Z,280
2018-02-08T08:26:09.456Z,268
2018-02-08T08:27:10.034Z,260
2018-02-08T08:28:10.600Z,264
2018-02-08T08:29:11.170Z,252
2018-02-08T08:30:11.738Z,236
2018-02-08T08:31:12.306Z,236
2018-02-08T08:32:12.875Z,236
2018-02-08T08:33:13.443Z,240
2018-02-08T08:34:14.013Z,244
2018-02-08T08:35:14.581Z,252
2018-02-08T08:36:15.167Z,252
2018-02-08T08:37:15.732Z,264
2018-02-08T08:38:16.301Z,264
2018-02-08T08:39:16.870Z,248
2018-02-08T08:40:17.437Z,240
2018-02-08T08:41:18.020Z,228
2018-02-08T08:42:18.589Z,220
2018-02-08T08:43:19.155Z,208
2018-02-08T08:44:19.725Z,204
2018-02-08T08:45:20.292Z,200
2018-02-08T08:46:20.873Z,200
2018-02-08T08:47:21.440Z,204
2018-02-08T08:48:22.007Z,200
2018-02-08T08:49:22.575Z,204
2018-02-08T08:50:23.143Z,204
2018-02-08T08:51:23.708Z,208
2018-02-08T08:52:24.276Z,208
2018-02-08T08:53:24.845Z,208
2018-02-08T08:54:25.410Z,216
2018-02-08T08:55:25.980Z,228
2018-02-08T08:56:26.549Z,240
2018-02-08T08:57:27.117Z,236
2018-02-08T08:58:27.685Z,224
2018-02-08T08:59:28.254Z,220
2018-02-08T09:00:28.819Z,220
2018-02-08T09:01:29.386Z,224
2018-02-08T09:02:29.954Z,228
2018-02-08T09:03:30.535Z,232
2018-02-08T09:04:31.103Z,240
2018-02-08T09:05:31.677Z,256
2018-02-08T09:06:32.255Z,256
2018-02-08T09:07:32.824Z,260
2018-02-08T09:08:33.393Z,264
2018-02-08T09:09:33.962Z,268
2018-02-08T09:10:34.530Z,268
2018-02-08T09:11:35.105Z,268
2018-02-08T09:12:35.668Z,264
2018-02-08T09:13:36.236Z,260
2018-02-08T09:14:36.805Z,260
2018-02-08T09:15:37.387Z,260
2018-02-08T09:16:37.955Z,268
2018-02-08T09:17:38.547Z,264
2018-02-08T09:18:39.092Z,272
2018-02-08T09:19:39.660Z,284
2018-02-08T09:20:40.227Z,296
2018-02-08T09:21:40.797Z,312
2018-02-08T09:22:41.384Z,348
2018-02-08T09:23:41.931Z,384
2018-02-08T09:24:42.502Z,392
2018-02-08T09:25:43.097Z,396
2018-02-08T09:26:43.657Z,396
2018-02-08T09:27:44.225Z,400
2018-02-08T09:28:44.793Z,404
2018-02-08T09:29:45.362Z,392
2018-02-08T09:30:45.931Z,388
2018-02-08T09:31:46.501Z,376
2018-02-08T09:32:47.070Z,352
2018-02-08T09:33:47.638Z,380
2018-02-08T09:34:48.206Z,424
2018-02-08T09:35:48.776Z,424
2018-02-08T09:36:49.344Z,428
2018-02-08T09:37:49.913Z,432
2018-02-08T09:38:50.488Z,432
2018-02-08T09:39:51.068Z,436
2018-02-08T09:40:51.650Z,436
2018-02-08T09:41:52.218Z,436
2018-02-08T09:42:52.785Z,436
2018-02-08T09:43:53.357Z,436
2018-02-08T09:44:53.938Z,440
2018-02-08T09:45:54.505Z,444
2018-02-08T09:46:55.072Z,448
2018-02-08T09:47:55.644Z,452
2018-02-08T09:48:56.212Z,456
2018-02-08T09:49:56.781Z,452
2018-02-08T09:50:57.350Z,456
2018-02-08T09:51:57.919Z,456
2018-02-08T09:52:58.489Z,456
2018-02-08T09:53:59.071Z,456
2018-02-08T09:54:59.640Z,464
2018-02-08T09:56:00.224Z,460
2018-02-08T09:57:00.792Z,464
2018-02-08T09:58:01.362Z,464
2018-02-08T09:59:01.930Z,464
2018-02-08T10:00:02.499Z,464
2018-02-08T10:01:03.068Z,468
2018-02-08T10:02:03.638Z,464
2018-02-08T10:03:04.207Z,464
2018-02-08T10:04:04.776Z,456
2018-02-08T10:05:05.395Z,440
2018-02-08T10:06:05.966Z,436
2018-02-08T10:07:06.536Z,440
2018-02-08T10:08:07.105Z,456
2018-02-08T10:09:07.674Z,456
2018-02-08T10:10:08.244Z,456
2018-02-08T10:11:08.827Z,456
2018-02-08T10:12:09.397Z,456
2018-02-08T10:13:09.981Z,460
2018-02-08T10:14:10.550Z,460
2018-02-08T10:15:11.125Z,464
2018-02-08T10:16:11.691Z,476
2018-02-08T10:17:12.260Z,472
2018-02-08T10:18:12.831Z,488
2018-02-08T10:19:13.400Z,488
2018-02-08T10:20:13.969Z,488
2018-02-08T10:21:14.540Z,488
2018-02-08T10:22:15.110Z,488
2018-02-08T10:23:15.678Z,500
2018-02-08T10:24:16.249Z,500
2018-02-08T10:25:16.818Z,500
2018-02-08T10:26:17.389Z,492
2018-02-08T10:27:17.957Z,484
2018-02-08T10:28:18.526Z,500
2018-02-08T10:29:19.095Z,508
2018-02-08T10:30:19.664Z,512
2018-02-08T10:31:20.232Z,512
2018-02-08T10:32:20.801Z,508
2018-02-08T10:33:21.371Z,504
2018-02-08T10:34:21.939Z,496
2018-02-08T10:35:22.559Z,496
2018-02-08T10:36:23.128Z,500
2018-02-08T10:37:23.700Z,504
2018-02-08T10:38:24.268Z,504
2018-02-08T10:39:24.837Z,500
2018-02-08T10:40:25.407Z,504
2018-02-08T10:41:25.990Z,508
2018-02-08T10:42:26.559Z,508
2018-02-08T10:43:27.130Z,516
2018-02-08T10:44:27.713Z,512
2018-02-08T10:45:28.297Z,516
2018-02-08T10:46:28.881Z,516
2018-02-08T10:47:29.453Z,516
2018-02-08T10:48:30.020Z,520
2018-02-08T10:49:30.589Z,524
2018-02-08T10:50:31.160Z,524
2018-02-08T10:51:31.731Z,528
2018-02-08T10:52:32.300Z,528
2018-02-08T10:53:32.868Z,532
2018-02-08T10:54:33.451Z,532
2018-02-08T10:55:34.022Z,532
2018-02-08T10:56:34.591Z,536
2018-02-08T10:57:35.162Z,532
2018-02-08T10:58:35.732Z,532
2018-02-08T10:59:36.300Z,536
2018-02-08T11:00:36.869Z,536
2018-02-08T11:01:37.440Z,536
2018-02-08T11:02:38.009Z,532
2018-02-08T11:03:38.593Z,532
2018-02-08T11:04:39.179Z,536
2018-02-08T11:05:39.748Z,540
2018-02-08T11:06:40.319Z,540
2018-02-08T11:07:40.893Z,540
2018-02-08T11:08:41.461Z,536
2018-02-08T11:09:42.030Z,540
2018-02-08T11:10:42.598Z,540
2018-02-08T11:11:43.181Z,540
2018-02-08T11:12:43.765Z,540
2018-02-08T11:13:44.338Z,548
2018-02-08T11:14:44.908Z,548
2018-02-08T11:15:45.477Z,548
2018-02-08T11:16:46.048Z,548
2018-02-08T11:17:46.619Z,548
2018-02-08T11:18:47.190Z,548
2018-02-08T11:19:47.758Z,548
2018-02-08T11:20:48.343Z,552
2018-02-08T11:21:48.911Z,548
2018-02-08T11:22:49.479Z,548
2018-02-08T11:23:50.054Z,548
2018-02-08T11:24:50.619Z,552
2018-02-08T11:25:51.201Z,560
2018-02-08T11:26:51.769Z,560
2018-02-08T11:27:52.339Z,564
2018-02-08T11:28:52.912Z,564
2018-02-08T11:29:53.478Z,564
2018-02-08T11:30:54.048Z,568
2018-02-08T11:31:54.619Z,576
2018-02-08T11:32:55.201Z,580
2018-02-08T11:33:55.769Z,588
2018-02-08T11:34:56.337Z,592
2018-02-08T11:35:56.907Z,592
2018-02-08T11:36:57.475Z,592
2018-02-08T11:37:58.046Z,596
2018-02-08T11:38:58.614Z,600
2018-02-08T11:39:59.181Z,608
2018-02-08T11:40:59.749Z,612
2018-02-08T11:42:00.320Z,616
2018-02-08T11:43:00.887Z,612
2018-02-08T11:44:01.463Z,604
2018-02-08T11:45:02.026Z,588
2018-02-08T11:46:02.596Z,568
2018-02-08T11:47:03.167Z,564
2018-02-08T11:48:03.750Z,580
2018-02-08T11:49:04.304Z,592
2018-02-08T11:50:04.874Z,612
2018-02-08T11:51:05.442Z,624
2018-02-08T11:52:06.012Z,648
2018-02-08T11:53:06.582Z,648
2018-02-08T11:54:07.151Z,644
2018-02-08T11:55:07.736Z,644
2018-02-08T11:56:08.290Z,644
2018-02-08T11:57:08.861Z,644
2018-02-08T11:58:09.431Z,644
2018-02-08T11:59:10.003Z,636
2018-02-08T12:00:10.571Z,640
2018-02-08T12:01:11.199Z,644
2018-02-08T12:02:11.775Z,640
2018-02-08T12:03:12.344Z,632
2018-02-08T12:04:12.913Z,624
2018-02-08T12:05:13.483Z,604
2018-02-08T12:06:14.054Z,580
2018-02-08T12:07:14.635Z,572
2018-02-08T12:08:15.205Z,556
2018-02-08T12:09:15.775Z,544
2018-02-08T12:10:16.345Z,552
2018-02-08T12:11:16.914Z,552
2018-02-08T12:12:17.484Z,560
2018-02-08T12:13:18.054Z,552
2018-02-08T12:14:18.623Z,536
2018-02-08T12:15:19.206Z,532
2018-02-08T12:16:19.778Z,524
2018-02-08T12:17:20.361Z,512
2018-02-08T12:18:20.933Z,520
2018-02-08T12:19:21.503Z,524
2018-02-08T12:20:22.072Z,540
2018-02-08T12:21:22.642Z,556
2018-02-08T12:22:23.211Z,584
2018-02-08T12:23:23.782Z,596
2018-02-08T12:24:24.351Z,616
2018-02-08T12:25:24.920Z,620
2018-02-08T12:26:25.490Z,624
2018-02-08T12:27:26.061Z,620
2018-02-08T12:28:26.628Z,624
2018-02-08T12:29:27.198Z,620
2018-02-08T12:30:27.768Z,620
2018-02-08T12:31:28.338Z,620
2018-02-08T12:32:28.918Z,616
2018-02-08T12:33:29.490Z,616
2018-02-08T12:34:30.058Z,608
2018-02-08T12:35:30.628Z,600
2018-02-08T12:36:31.196Z,600
2018-02-08T12:37:31.765Z,588
2018-02-08T12:38:32.334Z,588
2018-02-08T12:39:32.905Z,580
2018-02-08T12:40:33.473Z,580
2018-02-08T12:41:34.044Z,580
2018-02-08T12:42:34.615Z,600
2018-02-08T12:43:35.184Z,608
2018-02-08T12:44:35.753Z,604
2018-02-08T12:45:36.324Z,600
2018-02-08T12:46:36.894Z,604
2018-02-08T12:47:37.462Z,608
2018-02-08T12:48:38.035Z,612
2018-02-08T12:49:38.609Z,620
2018-02-08T12:50:39.183Z,620
2018-02-08T12:51:39.751Z,616
2018-02-08T12:52:40.322Z,608
2018-02-08T12:53:40.892Z,596
2018-02-08T12:54:41.460Z,596
2018-02-08T12:55:42.029Z,568
2018-02-08T12:56:42.599Z,552
2018-02-08T12:57:43.170Z,540
2018-02-08T12:58:43.752Z,548
2018-02-08T12:59:44.323Z,572
2018-02-08T13:00:44.891Z,580
2018-02-08T13:01:45.462Z,584
2018-02-08T13:02:46.030Z,584
2018-02-08T13:03:46.614Z,588
2018-02-08T13:04:47.182Z,592
2018-02-08T13:05:47.764Z,600
2018-02-08T13:06:48.335Z,612
2018-02-08T13:07:48.904Z,624
2018-02-08T13:08:49.473Z,632
2018-02-08T13:09:50.043Z,632
2018-02-08T13:10:50.615Z,632
2018-02-08T13:11:51.196Z,632
2018-02-08T13:12:51.768Z,636
2018-02-08T13:13:52.338Z,636
2018-02-08T13:14:52.920Z,636
2018-02-08T13:15:53.490Z,636
2018-02-08T13:16:54.062Z,636
2018-02-08T13:17:54.632Z,632
2018-02-08T13:18:55.202Z,624
2018-02-08T13:19:55.774Z,624
2018-02-08T13:20:56.343Z,612
2018-02-08T13:21:56.914Z,604
2018-02-08T13:22:57.485Z,596
2018-02-08T13:23:58.054Z,600
2018-02-08T13:24:58.624Z,604
2018-02-08T13:25:59.195Z,604
2018-02-08T13:26:59.780Z,604
2018-02-08T13:28:00.349Z,612
2018-02-08T13:29:00.920Z,620
2018-02-08T13:30:01.490Z,632
2018-02-08T13:31:02.074Z,636
2018-02-08T13:32:02.653Z,640
2018-02-08T13:33:03.212Z,640
2018-02-08T13:34:03.784Z,644
2018-02-08T13:35:04.367Z,652
2018-02-08T13:36:04.935Z,648
2018-02-08T13:37:05.505Z,644
2018-02-08T13:38:06.087Z,652
2018-02-08T13:39:06.659Z,652
2018-02-08T13:40:07.228Z,656
2018-02-08T13:41:07.798Z,656
2018-02-08T13:42:08.370Z,656
2018-02-08T13:43:08.939Z,656
2018-02-08T13:44:09.510Z,652
2018-02-08T13:45:10.078Z,656
2018-02-08T13:46:10.649Z,660
2018-02-08T13:47:11.219Z,660
2018-02-08T13:48:11.788Z,660
2018-02-08T13:49:12.359Z,660
2018-02-08T13:50:12.930Z,664
2018-02-08T13:51:13.499Z,668
2018-02-08T13:52:14.070Z,672
2018-02-08T13:53:14.641Z,672
2018-02-08T13:54:15.210Z,680
2018-02-08T13:55:15.781Z,680
2018-02-08T13:56:16.366Z,684
2018-02-08T13:57:16.936Z,688
2018-02-08T13:58:17.507Z,688
2018-02-08T13:59:18.077Z,688
2018-02-08T14:00:18.648Z,688
2018-02-08T14:01:19.218Z,688
2018-02-08T14:02:19.787Z,688
2018-02-08T14:03:20.359Z,688
2018-02-08T14:04:20.929Z,688
2018-02-08T14:05:21.499Z,692
2018-02-08T14:06:22.073Z,696
2018-02-08T14:07:22.638Z,700
2018-02-08T14:08:23.208Z,700
2018-02-08T14:09:23.781Z,704
2018-02-08T14:10:24.351Z,704
2018-02-08T14:11:24.926Z,700
2018-02-08T14:12:25.500Z,700
2018-02-08T14:13:26.068Z,696
2018-02-08T14:14:26.643Z,700
2018-02-08T14:15:27.205Z,696
2018-02-08T14:16:27.775Z,700
2018-02-08T14:17:28.346Z,700
2018-02-08T14:18:28.916Z,700
2018-02-08T14:19:29.488Z,700
2018-02-08T14:20:30.057Z,700
2018-02-08T14:21:30.628Z,700
2018-02-08T14:22:31.197Z,696
2018-02-08T14:23:31.768Z,700